This is the latest recevied weather packets stored in our database for station/object VK7TM-1. If no packets are shown the sender has not sent any weather packets the latest 10 day(s).
| Time | Temp. | Humidity | Pressure | Rain* | Wind** | Luminosity | Snow |
|---|---|---|---|---|---|---|---|
| 1778035101 | 13.89° C | 87% | 1012.3 hPa | 0 mm | - | 217 W/m² | - |
| 1778034811 | 13.33° C | 90% | 1012.5 hPa | 0 mm | - | 338 W/m² | - |
| 1778034521 | 13.33° C | 91% | 1012.7 hPa | 0 mm | - | 273 W/m² | - |
| 1778034231 | 13.33° C | 92% | 1013 hPa | 0 mm | - | 171 W/m² | - |
| 1778033941 | 13.33° C | 92% | 1012.9 hPa | 0 mm | - | 190 W/m² | - |
| 1778033651 | 12.78° C | 92% | 1013.2 hPa | 0 mm | - | 224 W/m² | - |
| 1778033360 | 13.33° C | 91% | 1013.1 hPa | 0 mm | - | 148 W/m² | - |
| 1778033071 | 13.33° C | 89% | 1013.3 hPa | 0 mm | - | 94 W/m² | - |
| 1778032780 | 13.89° C | 89% | 1013.3 hPa | 0 mm | - | 52 W/m² | - |
| 1778032490 | 14.44° C | 87% | 1013.4 hPa | 0 mm | - | 102 W/m² | - |
| 1778032200 | 14.44° C | 86% | 1013.4 hPa | 0 mm | - | 90 W/m² | - |
| 1778031910 | 14.44° C | 87% | 1013.6 hPa | 0 mm | - | 214 W/m² | - |
| 1778031620 | 14.44° C | 87% | 1013.3 hPa | 0 mm | - | 211 W/m² | - |
| 1778031330 | 14.44° C | 88% | 1013.5 hPa | 0 mm | - | 149 W/m² | - |
| 1778031040 | 13.89° C | 89% | 1013.6 hPa | 0 mm | - | 153 W/m² | - |
| 1778030750 | 13.89° C | 89% | 1013.8 hPa | 0 mm | - | 144 W/m² | - |
| 1778030460 | 13.89° C | 90% | 1013.7 hPa | 0 mm | - | 167 W/m² | - |
| 1778030171 | 13.33° C | 92% | 1014 hPa | 0 mm | - | 200 W/m² | - |
| 1778029880 | 13.33° C | 94% | 1013.9 hPa | 0 mm | - | 198 W/m² | - |
| 1778029590 | 13.33° C | 95% | 1014 hPa | 0 mm | - | 162 W/m² | - |
| 1778029300 | 13.33° C | 95% | 1014.2 hPa | 0 mm | - | 84 W/m² | - |
| 1778029010 | 13.33° C | 95% | 1014 hPa | 0 mm | - | 84 W/m² | - |
| 1778028720 | 13.33° C | 94% | 1014.3 hPa | 0 mm | - | 149 W/m² | - |
| 1778028430 | 12.78° C | 94% | 1014.3 hPa | 0 mm | - | 176 W/m² | - |
| 1778028140 | 13.33° C | 94% | 1014.6 hPa | 0 mm | - | 75 W/m² | - |
* Rain latest hour (hover to see other rain measurements)
** Current wind speed in m/s (hover to see current wind gust speed)